Home > Products > Valid Products > MTR

000
SAUS43 KABR 210701
MTR8D3
METAR K8D3 210656Z AUTO 14003KT 02/01 A3005 RMK AO1 SLP176 T00220011





000
SAUS43 KABR 210602
MTR8D3
METAR K8D3 210556Z AUTO 21003KT 03/02 A3004 RMK AO1 SLP176 T00280017
10100 20017 402110006 50000





000
SAUS43 KABR 210501
MTR8D3
METAR K8D3 210456Z AUTO 21003KT 03/02 A3004 RMK AO1 SLP178 T00280017





000
SAUS43 KABR 210401
MTR8D3
METAR K8D3 210356Z AUTO 14003KT 03/02 A3005 RMK AO1 SLP182 T00330017





000
SAUS43 KABR 210401
MTR8D3
METAR K8D3 210356Z AUTO 14003KT 03/02 A3005 RMK AO1 SLP182 T00330017





000
SAUS43 KABR 210301
MTR8D3
METAR K8D3 210256Z AUTO 25004KT 04/02 A3005 RMK AO1 SLP182 T00390022
53008





000
SAUS43 KABR 210201
MTR8D3
METAR K8D3 210156Z AUTO 23004KT 06/03 A3003 RMK AO1 SLP178 T00560028





000
SAUS43 KABR 210201
MTR8D3
METAR K8D3 210156Z AUTO 23004KT 06/03 A3003 RMK AO1 SLP178 T00560028





000
SAUS43 KABR 210101
MTR8D3
METAR K8D3 210056Z AUTO 00000KT 06/03 A3002 RMK AO1 SLP179 T00610028





000
SAUS43 KABR 210001
MTR8D3
METAR K8D3 202356Z AUTO 08003KT 09/04 A3002 RMK AO1 SLP174 T00940039
10211 20094 53003





000
SAUS43 KABR 202301
MTR8D3
METAR K8D3 202256Z AUTO 06005KT 18/04 A3002 RMK AO1 SLP165 T01830044





000
SAUS43 KABR 202202
MTR8D3
METAR K8D3 202156Z AUTO 36005KT 21/04 A3001 RMK AO1 SLP163 T02060039





000
SAUS43 KABR 202202
MTR8D3
METAR K8D3 202156Z AUTO 36005KT 21/04 A3001 RMK AO1 SLP163 T02060039





000
SAUS43 KABR 202101
MTR8D3
METAR K8D3 202056Z AUTO 01009G15KT 21/04 A3001 RMK AO1 SLP160
T02110044 56013





000
SAUS43 KABR 202001
MTR8D3
METAR K8D3 201956Z AUTO 01010KT 21/04 A3002 RMK AO1 SLP161 T02060039





000
SAUS43 KABR 201901
MTR8D3
METAR K8D3 201856Z AUTO 36006KT 20/05 A3003 RMK AO1 SLP165 T02000050





000
SAUS43 KABR 201802
MTR8D3
METAR K8D3 201756Z AUTO 01006KT 18/05 A3005 RMK AO1 SLP174 T01830050
10183 20006 58007





000
SAUS43 KABR 201701
MTR8D3
METAR K8D3 201656Z AUTO 01006KT 16/05 A3007 RMK AO1 SLP182 T01560050





000
SAUS43 KABR 201601
MTR8D3
METAR K8D3 201556Z AUTO 35006KT 13/05 A3007 RMK AO1 SLP187 T01330050





000
SAUS43 KABR 201501
MTR8D3
METAR K8D3 201456Z AUTO 34007KT 11/04 A3007 RMK AO1 SLP187 T01060044
51014





000
SAUS43 KABR 201401
MTR8D3
METAR K8D3 201356Z AUTO 02003KT 06/03 A3006 RMK AO1 SLP186 T00610028





000
SAUS43 KABR 201301
MTR8D3
METAR K8D3 201256Z AUTO 36003KT 01/00 A3005 RMK AO1 SLP184 T00110000





000
SAUS43 KABR 201201
MTR8D3
METAR K8D3 201156Z AUTO 33004KT 03/02 A3003 RMK AO1 SLP172 T00330017
10100 20028 51015





000
SAUS43 KABR 201101
MTR8D3
METAR K8D3 201056Z AUTO 33004KT 04/02 A3001 RMK AO1 SLP161 T00440017





000
SAUS43 KABR 201001
MTR8D3
METAR K8D3 200956Z AUTO 33005KT 04/02 A3000 RMK AO1 SLP158 T00390017





000
SAUS43 KABR 201001
MTR8D3
METAR K8D3 200956Z AUTO 33005KT 04/02 A3000 RMK AO1 SLP158 T00390017





000
SAUS43 KABR 200901
MTR8D3
METAR K8D3 200856Z AUTO 32006KT 06/02 A2998 RMK AO1 SLP149 T00610022
51010





000
SAUS43 KABR 200801
MTR8D3
METAR K8D3 200756Z AUTO 33007KT 08/03 A2998 RMK AO1 SLP145 T00780028





000
SAUS43 KABR 200801
MTR8D3
METAR K8D3 200756Z AUTO 33007KT 08/03 A2998 RMK AO1 SLP145 T00780028





000
SAUS43 KABR 200701
MTR8D3
METAR K8D3 200656Z AUTO 33008KT 09/04 A2996 RMK AO1 SLP140 T00890039





000
SAUS43 KABR 200601
MTR8D3
METAR K8D3 200556Z AUTO 32006KT 09/03 A2995 RMK AO1 SLP137 T00890028
10167 20044 402330044 51005





000
SAUS43 KABR 200501
MTR8D3
METAR K8D3 200456Z AUTO 31004KT 07/03 A2995 RMK AO1 SLP139 T00670028





000
SAUS43 KABR 200401
MTR8D3
METAR K8D3 200356Z AUTO 00000KT 05/02 A2994 RMK AO1 SLP141 T00500022





000
SAUS43 KABR 200301
MTR8D3
METAR K8D3 200256Z AUTO 33008KT 09/03 A2994 RMK AO1 SLP138 T00940033
51018





000
SAUS43 KABR 200201
MTR8D3
METAR K8D3 200156Z AUTO 32007KT 10/03 A2992 RMK AO1 SLP133 T01000028





000
SAUS43 KABR 200101
MTR8D3
METAR K8D3 200056Z AUTO 34007KT 12/03 A2991 RMK AO1 SLP129 T01220033





000
SAUS43 KABR 200001
MTR8D3
METAR K8D3 192356Z AUTO 36008KT 17/04 A2988 RMK AO1 SLP116 T01670039
10233 20167 53020





000
SAUS43 KABR 200001
MTR8D3
METAR K8D3 192356Z AUTO 36008KT 17/04 A2988 RMK AO1 SLP116 T01670039
10233 20167 53020





000
SAUS43 KABR 192301
MTR8D3
METAR K8D3 192256Z AUTO 35013G21KT 21/03 A2985 RMK AO1 SLP102
T02060033





000
SAUS43 KABR 192301
MTR8D3
METAR K8D3 192256Z AUTO 35013G21KT 21/03 A2985 RMK AO1 SLP102
T02060033





000
SAUS43 KABR 192201
MTR8D3
METAR K8D3 192156Z AUTO 35018G25KT 22/03 A2984 RMK AO1 PK WND
34027/2119 SLP095 T02220033





000
SAUS43 KABR 192101
MTR8D3
METAR K8D3 192056Z AUTO 34022G27KT 23/04 A2982 RMK AO1 PK WND
35027/2047 SLP089 T02280039 55005





000
SAUS43 KABR 192001
MTR8D3
METAR K8D3 191956Z AUTO 34018KT 23/04 A2982 RMK AO1 SLP089 T02330044





000
SAUS43 KABR 191901
MTR8D3
METAR K8D3 191856Z AUTO 34018G25KT 22/05 A2983 RMK AO1 SLP092
T02220050





000
SAUS43 KABR 191801
MTR8D3
METAR K8D3 191756Z AUTO 33016KT 22/05 A2984 RMK AO1 SLP097 T02170050
10217 20094 53003





000
SAUS43 KABR 191701
MTR8D3
METAR K8D3 191656Z AUTO 31013KT 20/06 A2983 RMK AO1 SLP098 T02000061





000
SAUS43 KABR 191601
MTR8D3
METAR K8D3 191556Z AUTO 30015KT 17/06 A2983 RMK AO1 SLP101 T01670061





000
SAUS43 KABR 191501
MTR8D3
METAR K8D3 191456Z AUTO 30011KT 14/06 A2983 RMK AO1 SLP104 T01390056
53006





000
SAUS43 KABR 191401
MTR8D3
METAR K8D3 191356Z AUTO 28012KT 12/05 A2982 RMK AO1 SLP102 T01170050





000
SAUS43 KABR 191301
MTR8D3
METAR K8D3 191256Z AUTO 27014KT 10/05 A2981 RMK AO1 SLP100 T01000050





000
SAUS43 KABR 191201
MTR8D3
METAR K8D3 191156Z AUTO 27016G24KT 11/05 A2981 RMK AO1 SLP099
T01060050 10128 20094 51001





000
SAUS43 KABR 191101
MTR8D3
METAR K8D3 191056Z AUTO 26017G24KT 11/05 A2980 RMK AO1 PK WND
25031/1025 SLP094 T01110050





000
SAUS43 KABR 191001
MTR8D3
METAR K8D3 190956Z AUTO 23015G24KT 12/04 A2982 RMK AO1 PK WND
25038/0901 SLP099 T01170044





000
SAUS43 KABR 190901
MTR8D3
METAR K8D3 190856Z AUTO 25029G37KT 12/04 A2981 RMK AO1 PK WND
25037/0855 PRESFR SLP094 T01220044 58032





000
SAUS43 KABR 190801
MTR8D3
METAR K8D3 190756Z AUTO 22014KT 11/04 A2986 RMK AO1 PK WND
22026/0658 SLP114 T01060039





000
SAUS43 KABR 190701
MTR8D3
METAR K8D3 190656Z AUTO 22021G27KT 12/04 A2987 RMK AO1 PK WND
22027/0656 SLP118 T01170039





000
SAUS43 KABR 190601
MTR8D3
METAR K8D3 190556Z AUTO 21016G23KT 10/04 A2990 RMK AO1 PK WND
21026/0537 SLP132 T01000039 10106 20039 401060039 56033





000
SAUS43 KABR 190501
MTR8D3
METAR K8D3 190456Z AUTO 17010KT 06/04 A2994 RMK AO1 SLP147 T00610039





000
SAUS43 KABR 190401
MTR8D3
METAR K8D3 190356Z AUTO 18010KT 06/04 A2997 RMK AO1 SLP158 T00560039





000
SAUS43 KABR 190401
MTR8D3
METAR K8D3 190356Z AUTO 18010KT 06/04 A2997 RMK AO1 SLP158 T00560039





000
SAUS43 KABR 190302
MTR8D3
METAR K8D3 190256Z AUTO 17007KT 04/03 A3001 RMK AO1 SLP171 T00440033
56018





000
SAUS43 KABR 190201
MTR8D3
METAR K8D3 190156Z AUTO 18008KT 04/03 A3002 RMK AO1 SLP177 T00440033





000
SAUS43 KABR 190101
MTR8D3
METAR K8D3 190056Z AUTO 18009KT 06/04 A3004 RMK AO1 SLP182 T00610039





000
SAUS43 KABR 190001
MTR8D3
METAR K8D3 182356Z AUTO 16008KT 07/04 A3006 RMK AO1 SLP188 T00670039
10100 20061 56023





000
SAUS43 KABR 182301
MTR8D3
METAR K8D3 182256Z AUTO 16011KT 09/04 A3007 RMK AO1 SLP190 T00890044





000
SAUS43 KABR 182201
MTR8D3
METAR K8D3 182156Z AUTO 18010KT 09/04 A3011 RMK AO1 SLP202 T00940044





000
SAUS43 KABR 182101
MTR8D3
METAR K8D3 182056Z AUTO 18011KT 09/04 A3013 RMK AO1 SLP211 T00940044
58030





000
SAUS43 KABR 182002
MTR8D3
METAR K8D3 181956Z AUTO 19010KT 08/04 A3017 RMK AO1 SLP226 T00780039





000
SAUS43 KABR 182002
MTR8D3
METAR K8D3 181956Z AUTO 19010KT 08/04 A3017 RMK AO1 SLP226 T00780039





000
SAUS43 KABR 181901
MTR8D3
METAR K8D3 181856Z AUTO 19006KT 07/04 A3019 RMK AO1 SLP234 T00670039





000
SAUS43 KABR 181801
MTR8D3
METAR K8D3 181756Z AUTO 21005KT 06/04 A3022 RMK AO1 SLP244 T00610039
10061 20044 58001





000
SAUS43 KABR 181701
MTR8D3
METAR K8D3 181656Z AUTO 25006KT 06/04 A3023 RMK AO1 SLP248 T00560039





000
SAUS43 KABR 181701
MTR8D3
METAR K8D3 181656Z AUTO 25006KT 06/04 A3023 RMK AO1 SLP248 T00560039





000
SAUS43 KABR 181601
MTR8D3
METAR K8D3 181556Z AUTO 22004KT 05/04 A3023 RMK AO1 SLP246 T00500039





000
SAUS43 KABR 181601
MTR8D3
METAR K8D3 181556Z AUTO 22004KT 05/04 A3023 RMK AO1 SLP246 T00500039





000
SAUS43 KABR 181501
MTR8D3
METAR K8D3 181456Z AUTO 00000KT 05/03 A3023 RMK AO1 SLP245 T00500033
58004





000
SAUS43 KABR 181501
MTR8D3
METAR K8D3 181456Z AUTO 00000KT 05/03 A3023 RMK AO1 SLP245 T00500033
58004





000
SAUS43 KABR 181401
MTR8D3
METAR K8D3 181356Z AUTO 33004KT 05/03 A3024 RMK AO1 SLP248 T00500033





000
SAUS43 KABR 181301
MTR8D3
METAR K8D3 181256Z AUTO 00000KT 05/03 A3023 RMK AO1 SLP248 T00500033





000
SAUS43 KABR 181201
MTR8D3
METAR K8D3 181156Z AUTO 33005KT 05/03 A3024 RMK AO1 SLP249 T00500033
10061 20050 53006





000
SAUS43 KABR 181101
MTR8D3
METAR K8D3 181056Z AUTO 36004KT 06/03 A3023 RMK AO1 SLP247 T00560033





000
SAUS43 KABR 181101
MTR8D3
METAR K8D3 181056Z AUTO 36004KT 06/03 A3023 RMK AO1 SLP247 T00560033





000
SAUS43 KABR 181001
MTR8D3
METAR K8D3 180956Z AUTO 34005KT 06/03 A3022 RMK AO1 SLP243 T00560033





000
SAUS43 KABR 180901
MTR8D3
METAR K8D3 180856Z AUTO 33007KT 06/03 A3022 RMK AO1 SLP242 T00560033
53004





000
SAUS43 KABR 180801
MTR8D3
METAR K8D3 180756Z AUTO 33008KT 06/03 A3020 RMK AO1 SLP237 T00560033





    US Dept of Commerce
    National Oceanic and Atmospheric Administration
    National Weather Service
    1325 East West Highway
    Silver Spring, MD 20910
    Page Author: NWS Internet Services Team
Disclaimer
Information Quality
Credits
Glossary
Privacy Policy
Freedom of Information Act (FOIA)
About Us
Career Opportunities